Time;durP1;ratioP1;P1;durP2;ratioP2;P2;SDS_P1;SDS_P2;PMS_P1;PMS_P2;Temp;Humidity;BMP_temperature;BMP_pressure;BME280_temperature;BME280_humidity;BME280_pressure;Samples;Min_cycle;Max_cycle;Signal;HPM_P1;HPM_P2
2023/01/06 00:02:24;;;;;;;7.00;4.90;;;16.10;60.70;;;;;;5021428;28;20185;-59
2023/01/06 00:04:49;;;;;;;5.30;4.80;;;16.10;60.50;;;;;;5030945;28;20233;-60
2023/01/06 00:07:15;;;;;;;9.17;5.97;;;16.10;60.80;;;;;;5029121;28;20266;-59
2023/01/06 00:09:40;;;;;;;6.93;4.53;;;16.10;60.80;;;;;;5032538;28;20284;-59
2023/01/06 00:12:07;;;;;;;7.37;5.87;;;16.10;60.70;;;;;;5025609;28;20190;-60
2023/01/06 00:14:33;;;;;;;7.80;4.20;;;16.10;60.70;;;;;;5023233;28;20251;-59
2023/01/06 00:16:58;;;;;;;7.27;4.57;;;16.10;60.80;;;;;;5029864;28;20440;-59
2023/01/06 00:19:24;;;;;;;6.77;4.37;;;16.10;60.80;;;;;;5029227;28;20197;-59
2023/01/06 00:21:50;;;;;;;4.67;3.83;;;16.10;60.70;;;;;;5023666;28;20185;-59
2023/01/06 00:24:15;;;;;;;5.33;3.70;;;16.00;60.80;;;;;;5023373;28;22049;-59
2023/01/06 00:26:41;;;;;;;4.73;4.20;;;16.00;61.10;;;;;;5028829;28;20312;-60
2023/01/06 00:29:09;;;;;;;5.67;3.83;;;16.10;61.00;;;;;;5023917;28;20230;-59
2023/01/06 00:31:36;;;;;;;5.73;4.50;;;16.10;60.80;;;;;;5021388;28;20201;-59
2023/01/06 00:34:02;;;;;;;7.93;3.80;;;16.10;60.90;;;;;;5021229;28;20441;-59
2023/01/06 00:36:28;;;;;;;5.10;4.60;;;16.00;60.90;;;;;;5022584;28;20463;-60
2023/01/06 00:38:53;;;;;;;8.37;5.73;;;15.90;61.20;;;;;;5025930;28;20456;-59
2023/01/06 00:44:04;;;;;;;10.80;7.33;;;15.90;61.70;;;;;;5018565;28;20252;-60
2023/01/06 00:46:30;;;;;;;5.83;4.63;;;15.80;61.60;;;;;;5020225;28;20444;-60
2023/01/06 00:49:00;;;;;;;7.70;4.80;;;15.70;61.70;;;;;;5023245;28;20490;-60
2023/01/06 00:51:26;;;;;;;4.97;4.27;;;15.60;62.50;;;;;;5021888;28;21884;-59
2023/01/06 00:53:53;;;;;;;7.27;5.13;;;15.50;62.60;;;;;;5022420;28;20970;-59
2023/01/06 00:56:19;;;;;;;8.83;6.63;;;15.50;62.40;;;;;;5022019;28;20950;-61
2023/01/06 00:58:44;;;;;;;7.50;6.27;;;15.40;63.10;;;;;;5026473;28;20982;-59
2023/01/06 01:01:11;;;;;;;10.13;6.77;;;15.50;62.90;;;;;;5022104;28;20503;-60
2023/01/06 01:03:37;;;;;;;8.77;6.00;;;15.50;62.90;;;;;;5020015;28;20290;-59
2023/01/06 01:06:05;;;;;;;8.53;5.40;;;15.50;62.60;;;;;;5029589;28;20471;-59
2023/01/06 01:08:32;;;;;;;7.87;6.27;;;15.50;62.90;;;;;;5021605;28;20481;-59
2023/01/06 01:11:09;;;;;;;8.10;7.30;;;15.40;63.00;;;;;;5028265;28;20447;-59
2023/01/06 01:13:35;;;;;;;11.40;7.03;;;15.40;63.40;;;;;;5018777;28;20501;-59
2023/01/06 01:16:08;;;;;;;9.00;6.83;;;15.50;63.40;;;;;;5018009;28;20440;-59
2023/01/06 01:18:34;;;;;;;7.83;4.80;;;15.40;63.50;;;;;;5021101;28;20485;-59
2023/01/06 01:21:00;;;;;;;7.03;5.20;;;15.50;63.40;;;;;;5020941;28;20785;-59
2023/01/06 01:23:25;;;;;;;8.30;5.10;;;15.40;63.30;;;;;;5023232;28;20448;-60
2023/01/06 01:25:55;;;;;;;5.33;4.83;;;15.30;63.60;;;;;;5024564;28;20279;-59
2023/01/06 01:28:20;;;;;;;6.83;4.63;;;15.20;63.90;;;;;;5027201;28;20227;-59
2023/01/06 01:30:46;;;;;;;6.37;4.90;;;15.20;64.00;;;;;;5019519;28;20444;-59
2023/01/06 01:33:13;;;;;;;5.57;4.47;;;15.30;64.00;;;;;;5024822;28;20254;-59
2023/01/06 01:35:38;;;;;;;5.27;4.57;;;15.30;63.80;;;;;;5021905;28;20477;-59
2023/01/06 01:38:04;;;;;;;5.73;3.60;;;15.40;63.40;;;;;;5024343;28;20197;-59
2023/01/06 01:40:29;;;;;;;6.27;4.50;;;15.40;63.30;;;;;;5021489;28;20220;-59
2023/01/06 01:42:55;;;;;;;7.00;5.87;;;15.40;63.50;;;;;;5023801;28;20193;-59
2023/01/06 01:45:28;;;;;;;7.63;4.87;;;15.40;63.40;;;;;;5030143;28;20190;-59
2023/01/06 01:48:05;;;;;;;7.50;5.20;;;15.10;64.30;;;;;;5017158;28;20225;-59
2023/01/06 01:50:45;;;;;;;7.10;4.90;;;15.00;64.80;;;;;;5018378;28;20432;-60
2023/01/06 01:53:22;;;;;;;5.10;3.73;;;15.10;64.40;;;;;;5021695;28;20440;-59
2023/01/06 01:55:50;;;;;;;5.33;4.00;;;15.10;64.40;;;;;;5020645;28;20957;-59
2023/01/06 01:58:23;;;;;;;6.93;3.87;;;15.10;64.00;;;;;;5024548;28;20444;-60
2023/01/06 02:00:50;;;;;;;5.10;4.10;;;15.20;63.90;;;;;;5026504;28;20527;-59
2023/01/06 02:03:19;;;;;;;7.07;4.30;;;15.20;63.80;;;;;;5030105;28;20970;-59
2023/01/06 02:05:55;;;;;;;10.00;5.47;;;15.20;63.80;;;;;;5019098;28;20451;-59
2023/01/06 02:08:33;;;;;;;8.10;5.87;;;15.20;63.70;;;;;;5021441;28;20478;-59
2023/01/06 02:10:58;;;;;;;10.53;5.50;;;15.30;63.70;;;;;;5026380;28;20448;-59
2023/01/06 02:13:24;;;;;;;5.90;4.67;;;15.30;63.30;;;;;;5030665;28;20775;-59
2023/01/06 02:15:57;;;;;;;6.13;3.73;;;15.30;63.30;;;;;;5033723;28;20188;-59
2023/01/06 02:18:59;;;;;;;4.90;3.90;;;15.20;63.40;;;;;;5025141;28;20189;-59
2023/01/06 02:21:47;;;;;;;6.80;3.67;;;15.10;63.80;;;;;;5014722;28;20477;-60
2023/01/06 02:24:47;;;;;;;4.73;3.70;;;15.10;63.80;;;;;;5025638;28;20447;-59
2023/01/06 02:27:40;;;;;;;8.00;5.50;;;15.20;63.40;;;;;;5021500;28;20503;-59
2023/01/06 02:30:17;;;;;;;6.17;4.53;;;15.20;63.00;;;;;;5021680;28;20540;-59
2023/01/06 02:32:48;;;;;;;7.30;4.30;;;15.00;63.60;;;;;;5026867;28;20447;-59
2023/01/06 02:35:52;;;;;;;8.53;4.63;;;15.00;63.70;;;;;;5025793;28;20489;-60
2023/01/06 02:38:46;;;;;;;6.23;4.80;;;15.00;63.90;;;;;;5007454;28;20452;-59
2023/01/06 02:41:28;;;;;;;4.53;3.80;;;15.10;63.90;;;;;;5017900;28;20486;-60
2023/01/06 02:44:02;;;;;;;4.33;3.90;;;15.10;63.50;;;;;;5022008;28;20457;-59
2023/01/06 02:46:51;;;;;;;9.33;4.00;;;15.10;63.40;;;;;;5027220;28;20514;-59
2023/01/06 02:49:30;;;;;;;6.03;3.40;;;15.00;64.40;;;;;;5023730;28;20484;-59
2023/01/06 02:52:14;;;;;;;4.03;3.73;;;15.10;63.30;;;;;;5024635;28;20435;-59
2023/01/06 02:55:09;;;;;;;4.03;3.63;;;15.20;63.30;;;;;;5024990;28;20455;-59
2023/01/06 02:57:56;;;;;;;4.23;3.33;;;15.10;63.20;;;;;;5018662;28;20455;-60
2023/01/06 03:00:30;;;;;;;4.57;4.13;;;15.10;63.60;;;;;;5027804;28;20446;-59
2023/01/06 03:03:07;;;;;;;4.50;3.13;;;15.00;63.80;;;;;;5031090;28;20462;-59
2023/01/06 03:05:35;;;;;;;3.90;3.50;;;14.90;64.20;;;;;;5026774;28;20436;-59
2023/01/06 03:08:07;;;;;;;3.63;3.07;;;14.90;64.40;;;;;;5027970;28;21049;-59
2023/01/06 03:10:33;;;;;;;4.43;3.07;;;15.00;64.10;;;;;;5028304;28;20445;-59
2023/01/06 03:13:05;;;;;;;4.07;3.40;;;15.10;64.00;;;;;;5029085;28;20436;-59
2023/01/06 03:15:31;;;;;;;4.10;3.47;;;15.10;63.90;;;;;;5028750;28;20437;-59
2023/01/06 03:17:56;;;;;;;5.13;3.40;;;15.00;64.20;;;;;;5020038;28;20976;-59
2023/01/06 03:20:22;;;;;;;4.30;3.90;;;15.00;64.00;;;;;;5032852;28;20231;-59
2023/01/06 03:22:48;;;;;;;5.23;3.60;;;15.10;63.90;;;;;;5028961;28;20185;-59
2023/01/06 03:25:14;;;;;;;7.17;4.00;;;15.10;63.80;;;;;;5028201;28;20320;-60
2023/01/06 03:27:39;;;;;;;7.37;3.50;;;15.10;63.80;;;;;;5030390;28;20244;-59
2023/01/06 03:30:09;;;;;;;7.03;4.00;;;15.10;63.80;;;;;;5024001;28;20487;-59
2023/01/06 03:32:37;;;;;;;4.20;3.50;;;15.20;63.60;;;;;;5027601;28;20984;-59
2023/01/06 03:35:14;;;;;;;4.03;3.40;;;15.20;63.30;;;;;;5030295;28;20440;-59
2023/01/06 03:37:46;;;;;;;5.57;3.50;;;15.20;63.10;;;;;;5022653;28;20443;-59
2023/01/06 03:40:26;;;;;;;4.20;2.80;;;15.30;63.10;;;;;;5019952;28;20888;-59
2023/01/06 03:43:12;;;;;;;5.40;3.40;;;15.30;62.90;;;;;;5026404;28;20886;-59
2023/01/06 03:45:56;;;;;;;4.73;3.30;;;15.30;62.90;;;;;;5034644;28;20471;-59
2023/01/06 03:48:39;;;;;;;7.00;3.07;;;15.40;62.90;;;;;;5019355;28;20531;-60
2023/01/06 03:51:29;;;;;;;3.20;2.90;;;15.30;62.90;;;;;;5027539;28;20454;-60
2023/01/06 03:54:05;;;;;;;4.00;2.87;;;15.20;62.90;;;;;;5025592;28;20436;-59
2023/01/06 03:56:45;;;;;;;4.63;3.27;;;15.30;63.00;;;;;;5017841;28;20470;-59
2023/01/06 03:59:19;;;;;;;4.83;3.47;;;15.20;62.40;;;;;;5031498;28;20443;-59
2023/01/06 04:01:46;;;;;;;7.33;3.47;;;15.20;63.10;;;;;;5023334;28;20440;-60
2023/01/06 04:04:12;;;;;;;3.10;2.90;;;15.20;62.90;;;;;;5027844;28;20505;-60
2023/01/06 04:06:38;;;;;;;4.00;3.20;;;15.20;62.70;;;;;;5032390;28;20428;-59
2023/01/06 04:09:03;;;;;;;4.33;3.40;;;15.10;62.50;;;;;;5029496;28;20514;-59
2023/01/06 04:14:13;;;;;;;3.53;3.13;;;15.20;62.40;;;;;;5026702;28;20284;-59
2023/01/06 04:16:39;;;;;;;4.07;3.27;;;15.00;62.40;;;;;;5026398;28;20858;-59
2023/01/06 04:19:04;;;;;;;4.13;3.30;;;14.70;63.40;;;;;;5025942;28;20648;-59
2023/01/06 04:21:30;;;;;;;4.10;3.40;;;14.40;64.70;;;;;;5029808;28;20199;-59
2023/01/06 04:23:55;;;;;;;5.63;3.00;;;14.40;65.10;;;;;;5027324;28;20194;-59
2023/01/06 04:26:21;;;;;;;4.43;3.40;;;14.40;65.00;;;;;;5028731;28;20228;-59
2023/01/06 04:28:47;;;;;;;3.30;2.90;;;14.30;65.30;;;;;;5025316;28;20217;-59
2023/01/06 04:31:12;;;;;;;4.07;3.67;;;14.20;65.60;;;;;;5023601;28;20222;-59
2023/01/06 04:33:38;;;;;;;3.23;3.00;;;14.40;65.50;;;;;;5028545;28;20193;-59
2023/01/06 04:36:04;;;;;;;6.10;3.63;;;14.50;64.80;;;;;;5027700;28;20905;-59
2023/01/06 04:38:29;;;;;;;3.87;3.07;;;14.50;64.30;;;;;;5026910;28;20189;-59
2023/01/06 04:40:55;;;;;;;3.97;3.67;;;14.50;63.80;;;;;;5025437;28;20435;-59
2023/01/06 04:43:21;;;;;;;3.47;3.17;;;14.60;63.40;;;;;;5029949;28;20193;-59
2023/01/06 04:45:46;;;;;;;5.27;3.33;;;14.60;63.20;;;;;;5015168;28;20217;-59
2023/01/06 04:48:12;;;;;;;3.80;3.07;;;14.60;63.10;;;;;;5024844;28;20221;-59
2023/01/06 04:50:38;;;;;;;4.40;3.03;;;14.60;63.00;;;;;;5022407;28;20625;-59
2023/01/06 04:53:05;;;;;;;3.30;3.00;;;14.60;63.00;;;;;;5026501;28;20554;-59
2023/01/06 04:55:31;;;;;;;3.47;3.07;;;14.60;62.90;;;;;;5023585;28;20643;-59
2023/01/06 04:57:57;;;;;;;4.87;3.23;;;14.60;62.90;;;;;;5030018;28;20444;-59
2023/01/06 05:00:22;;;;;;;4.00;3.20;;;14.50;63.30;;;;;;5025821;28;20250;-59
2023/01/06 05:02:49;;;;;;;3.47;3.17;;;14.50;63.30;;;;;;5029770;28;20432;-59
2023/01/06 05:05:15;;;;;;;4.30;3.00;;;14.60;63.00;;;;;;5022193;28;20273;-60
2023/01/06 05:07:41;;;;;;;3.43;2.83;;;14.60;62.80;;;;;;5027634;28;20476;-59
2023/01/06 05:10:08;;;;;;;3.60;3.00;;;14.60;62.70;;;;;;5019559;28;20479;-60
2023/01/06 05:12:34;;;;;;;6.43;3.77;;;14.60;62.40;;;;;;5037468;28;20629;-59
2023/01/06 05:15:00;;;;;;;3.93;2.87;;;14.60;62.00;;;;;;5028307;28;20428;-60
2023/01/06 05:17:26;;;;;;;5.87;4.03;;;14.60;61.90;;;;;;5029279;28;20519;-59
2023/01/06 05:19:52;;;;;;;5.17;4.67;;;14.60;61.50;;;;;;5018873;28;20923;-59
2023/01/06 05:22:18;;;;;;;5.03;4.07;;;14.40;61.90;;;;;;5024396;28;20550;-59
2023/01/06 05:24:44;;;;;;;4.00;3.60;;;14.40;62.10;;;;;;5020786;28;20200;-60
2023/01/06 05:27:09;;;;;;;6.80;4.30;;;14.40;62.20;;;;;;5026365;28;20324;-59
2023/01/06 05:29:35;;;;;;;4.23;3.70;;;14.40;62.50;;;;;;5024572;28;20239;-59
2023/01/06 05:32:01;;;;;;;4.57;3.97;;;14.30;63.00;;;;;;5022204;28;20288;-59
2023/01/06 05:34:26;;;;;;;8.30;4.17;;;14.30;63.20;;;;;;5026078;28;20219;-59
2023/01/06 05:36:52;;;;;;;6.10;4.90;;;14.40;63.00;;;;;;5020464;28;20243;-59
2023/01/06 05:39:17;;;;;;;11.23;9.00;;;14.30;62.70;;;;;;5025603;28;20416;-59
2023/01/06 05:41:43;;;;;;;5.90;4.93;;;14.30;62.60;;;;;;5018238;28;20731;-60
2023/01/06 05:44:09;;;;;;;6.70;4.80;;;14.30;62.70;;;;;;5034685;28;20215;-59
2023/01/06 05:46:35;;;;;;;5.57;3.50;;;14.30;63.10;;;;;;5020236;28;20364;-59
2023/01/06 05:49:01;;;;;;;4.80;4.30;;;14.30;63.00;;;;;;5023200;28;20259;-59
2023/01/06 05:51:27;;;;;;;5.97;4.60;;;14.30;62.90;;;;;;5019666;28;20611;-59
2023/01/06 05:53:53;;;;;;;7.03;4.30;;;14.40;63.20;;;;;;5025856;28;20444;-59
2023/01/06 05:56:19;;;;;;;5.20;4.37;;;14.40;63.00;;;;;;5024221;28;20474;-59
2023/01/06 05:58:48;;;;;;;5.20;4.67;;;14.40;62.80;;;;;;5027004;28;20318;-59
2023/01/06 06:01:23;;;;;;;4.30;3.67;;;14.40;62.70;;;;;;5028894;28;20660;-59
2023/01/06 06:03:50;;;;;;;4.67;3.97;;;14.30;62.90;;;;;;5020588;28;20894;-59
2023/01/06 06:06:16;;;;;;;5.70;3.97;;;14.20;63.40;;;;;;5018247;28;20436;-59
2023/01/06 06:08:42;;;;;;;3.80;2.87;;;14.20;63.60;;;;;;5020658;28;20504;-59
2023/01/06 06:11:10;;;;;;;3.93;3.27;;;14.30;63.50;;;;;;5018150;28;20479;-59
2023/01/06 06:13:36;;;;;;;3.70;3.10;;;14.30;63.50;;;;;;5024416;28;20197;-59
2023/01/06 06:16:08;;;;;;;7.23;3.63;;;14.30;63.50;;;;;;5026683;28;20451;-59
2023/01/06 06:18:39;;;;;;;3.37;3.03;;;14.20;63.40;;;;;;5021012;28;20446;-59
2023/01/06 06:21:05;;;;;;;3.80;3.40;;;14.20;63.90;;;;;;5016001;28;20471;-59
2023/01/06 06:23:31;;;;;;;3.30;2.83;;;14.20;63.90;;;;;;5023473;28;20906;-59
2023/01/06 06:25:56;;;;;;;3.63;3.33;;;14.30;63.90;;;;;;5022375;28;20185;-59
2023/01/06 06:28:22;;;;;;;3.60;3.30;;;14.40;63.80;;;;;;5025172;28;20224;-59
2023/01/06 06:30:47;;;;;;;3.50;3.20;;;14.40;63.80;;;;;;5019296;28;20641;-59
2023/01/06 06:33:13;;;;;;;3.87;3.00;;;14.30;64.10;;;;;;5031027;28;20228;-59
2023/01/06 06:35:39;;;;;;;4.23;2.80;;;14.30;64.20;;;;;;5034625;28;20192;-59
2023/01/06 06:38:04;;;;;;;3.43;2.73;;;14.40;64.40;;;;;;5033306;28;20641;-59
2023/01/06 06:40:30;;;;;;;3.23;2.30;;;14.40;64.10;;;;;;5025258;28;20190;-59
2023/01/06 06:42:56;;;;;;;3.70;2.90;;;14.50;64.70;;;;;;5025981;28;20254;-59
2023/01/06 06:45:22;;;;;;;3.50;2.70;;;14.50;63.60;;;;;;5031393;28;20220;-59
2023/01/06 06:47:47;;;;;;;8.23;4.23;;;14.60;63.70;;;;;;5028524;28;20507;-60
2023/01/06 06:50:13;;;;;;;4.90;3.57;;;14.60;63.40;;;;;;5033569;28;20696;-60
2023/01/06 06:52:39;;;;;;;2.87;2.10;;;14.70;68.50;;;;;;5025554;28;20197;-60
2023/01/06 06:55:05;;;;;;;3.33;3.03;;;14.90;66.30;;;;;;5024648;28;20224;-60
2023/01/06 06:57:30;;;;;;;4.37;3.40;;;15.10;65.10;;;;;;5026854;28;20190;-60
2023/01/06 06:59:56;;;;;;;6.83;2.80;;;15.20;64.30;;;;;;5028235;28;20842;-59
2023/01/06 07:02:21;;;;;;;3.10;2.80;;;15.30;63.40;;;;;;5024924;28;20244;-60
2023/01/06 07:04:47;;;;;;;3.03;2.83;;;15.50;62.60;;;;;;5034484;28;20245;-60
2023/01/06 07:07:12;;;;;;;3.57;2.47;;;15.50;62.00;;;;;;5031681;28;20221;-60
2023/01/06 07:09:38;;;;;;;2.50;2.30;;;15.60;61.40;;;;;;5033085;28;20233;-59
2023/01/06 07:12:04;;;;;;;2.87;2.43;;;15.70;61.20;;;;;;5033857;28;20202;-60
2023/01/06 07:14:29;;;;;;;2.97;2.33;;;15.80;61.00;;;;;;5028575;28;20315;-60
2023/01/06 07:16:59;;;;;;;3.27;2.00;;;15.80;60.20;;;;;;5031009;28;20279;-60
2023/01/06 07:19:25;;;;;;;2.70;1.70;;;15.90;60.00;;;;;;5029643;28;20189;-61
2023/01/06 07:21:50;;;;;;;2.87;2.50;;;15.90;59.70;;;;;;5031550;28;20452;-60
2023/01/06 07:24:16;;;;;;;4.33;3.30;;;15.90;59.80;;;;;;5027733;28;20191;-60
2023/01/06 07:26:41;;;;;;;2.60;2.40;;;16.00;59.50;;;;;;5029087;28;20646;-60
2023/01/06 07:29:07;;;;;;;3.40;3.10;;;16.00;59.40;;;;;;5035886;28;20223;-60
2023/01/06 07:31:33;;;;;;;3.97;3.07;;;15.90;59.50;;;;;;5028267;28;20201;-60
2023/01/06 07:33:58;;;;;;;2.40;2.20;;;16.00;59.70;;;;;;5033990;28;20197;-60
2023/01/06 07:36:24;;;;;;;2.47;2.27;;;16.00;59.60;;;;;;5033363;28;20268;-59
2023/01/06 07:38:49;;;;;;;3.30;2.50;;;16.20;59.60;;;;;;5034740;28;20581;-60
2023/01/06 07:41:15;;;;;;;4.30;3.10;;;16.20;59.20;;;;;;5024603;28;20201;-59
2023/01/06 07:43:40;;;;;;;2.50;2.10;;;16.30;59.10;;;;;;5023848;28;20475;-59
2023/01/06 07:46:08;;;;;;;3.33;2.43;;;16.40;59.30;;;;;;5029192;28;20194;-59
2023/01/06 07:48:33;;;;;;;2.70;2.50;;;16.60;59.30;;;;;;5028136;28;20225;-59
2023/01/06 07:50:59;;;;;;;2.90;2.40;;;16.70;58.50;;;;;;5026235;28;20935;-59
2023/01/06 07:53:24;;;;;;;6.50;2.80;;;16.70;58.30;;;;;;5023939;28;20197;-59
2023/01/06 07:55:54;;;;;;;2.90;2.20;;;16.50;59.10;;;;;;5028908;28;20648;-59
2023/01/06 07:58:22;;;;;;;2.27;2.10;;;16.50;58.90;;;;;;5023637;28;20193;-59
2023/01/06 08:00:48;;;;;;;5.53;2.70;;;16.40;59.40;;;;;;5031493;28;20494;-59
2023/01/06 08:03:14;;;;;;;2.63;2.43;;;16.20;61.20;;;;;;5031433;28;20970;-60
2023/01/06 08:05:40;;;;;;;3.00;2.80;;;16.10;61.90;;;;;;5026090;28;20790;-60
2023/01/06 08:08:06;;;;;;;3.00;2.70;;;16.00;62.00;;;;;;5032078;28;20255;-60
2023/01/06 08:10:32;;;;;;;3.50;2.73;;;16.00;62.80;;;;;;5021386;28;20453;-60
2023/01/06 08:12:58;;;;;;;2.23;2.13;;;15.80;63.60;;;;;;5028930;28;20212;-61
2023/01/06 08:15:24;;;;;;;2.60;2.40;;;15.50;65.90;;;;;;5027111;28;20482;-61
2023/01/06 08:17:53;;;;;;;4.70;2.00;;;15.50;66.50;;;;;;5031211;28;20224;-61
2023/01/06 08:20:19;;;;;;;3.33;2.30;;;15.30;68.10;;;;;;5025665;28;20456;-62
2023/01/06 08:22:45;;;;;;;2.30;2.03;;;15.00;69.50;;;;;;5027029;28;20490;-62
2023/01/06 08:25:10;;;;;;;1.80;1.70;;;15.00;69.80;;;;;;5027926;28;20913;-62
2023/01/06 08:27:36;;;;;;;3.63;1.53;;;14.70;70.60;;;;;;5022154;28;20268;-62
2023/01/06 08:30:01;;;;;;;1.60;1.50;;;14.60;70.90;;;;;;5018835;28;20661;-62
2023/01/06 08:32:27;;;;;;;1.30;1.20;;;14.60;71.30;;;;;;5020981;28;20200;-62
2023/01/06 08:34:53;;;;;;;2.43;1.20;;;14.50;71.80;;;;;;5014658;28;20305;-62
2023/01/06 08:37:18;;;;;;;1.20;1.10;;;14.50;71.70;;;;;;5023298;28;20268;-62
2023/01/06 08:39:44;;;;;;;2.47;1.70;;;14.50;71.20;;;;;;5018911;28;20185;-62
2023/01/06 08:42:10;;;;;;;1.70;1.40;;;14.30;71.70;;;;;;5024599;28;20256;-62
2023/01/06 08:44:36;;;;;;;1.90;1.70;;;14.40;71.90;;;;;;5014899;28;21045;-62
2023/01/06 08:47:02;;;;;;;1.60;1.40;;;14.10;72.70;;;;;;5026789;28;20490;-62
2023/01/06 08:49:27;;;;;;;1.17;1.07;;;14.10;73.20;;;;;;5030447;28;20229;-61
2023/01/06 08:51:53;;;;;;;1.30;1.00;;;14.10;73.10;;;;;;5029425;28;20198;-62
2023/01/06 08:54:18;;;;;;;2.03;1.10;;;14.00;72.90;;;;;;5019529;28;20272;-62
2023/01/06 08:56:44;;;;;;;1.23;1.07;;;14.10;73.00;;;;;;5029315;28;20197;-61
2023/01/06 08:59:14;;;;;;;1.23;1.13;;;14.00;72.60;;;;;;5031326;28;20204;-61
2023/01/06 09:01:40;;;;;;;3.43;1.30;;;14.10;72.10;;;;;;5032990;28;20185;-62
2023/01/06 09:04:07;;;;;;;1.90;1.10;;;14.00;72.70;;;;;;5032382;28;20466;-61
2023/01/06 09:06:33;;;;;;;0.80;0.80;;;14.00;71.90;;;;;;5029701;28;20185;-61
2023/01/06 09:08:59;;;;;;;2.70;1.00;;;14.10;72.00;;;;;;5031330;28;20490;-62
2023/01/06 09:11:25;;;;;;;2.80;1.33;;;14.20;71.30;;;;;;5032681;28;20197;-61
2023/01/06 09:13:51;;;;;;;1.07;0.97;;;14.30;70.70;;;;;;5032826;28;20439;-62
2023/01/06 09:16:18;;;;;;;4.60;1.40;;;14.20;70.40;;;;;;5031424;28;20432;-61
2023/01/06 09:18:48;;;;;;;2.13;1.23;;;14.40;70.20;;;;;;5014245;28;20202;-61
2023/01/06 09:21:14;;;;;;;0.97;0.93;;;14.50;69.70;;;;;;5012825;28;20428;-61
2023/01/06 09:23:40;;;;;;;0.80;0.80;;;14.60;69.10;;;;;;5012909;28;20783;-61
2023/01/06 09:26:05;;;;;;;0.87;0.87;;;14.70;68.60;;;;;;5018297;28;20436;-61
2023/01/06 09:28:31;;;;;;;1.50;1.23;;;14.60;68.30;;;;;;5023227;28;20217;-62
2023/01/06 09:30:57;;;;;;;1.70;1.50;;;14.60;68.30;;;;;;5030643;28;20630;-61
2023/01/06 09:33:23;;;;;;;1.53;1.10;;;14.70;68.50;;;;;;5028321;28;20453;-61
2023/01/06 09:35:48;;;;;;;3.37;1.00;;;14.80;68.00;;;;;;5032547;28;20201;-62
2023/01/06 09:38:14;;;;;;;1.20;1.10;;;14.80;67.90;;;;;;5024518;28;20182;-62
2023/01/06 09:40:50;;;;;;;1.73;0.97;;;14.70;67.70;;;;;;5030565;28;20196;-61
2023/01/06 09:43:35;;;;;;;2.60;1.03;;;14.90;67.50;;;;;;5024194;28;20529;-61
2023/01/06 09:46:04;;;;;;;3.60;1.00;;;14.90;67.40;;;;;;5016100;28;20930;-62
2023/01/06 09:48:41;;;;;;;1.63;1.23;;;15.10;67.20;;;;;;5027460;28;20476;-61
2023/01/06 09:51:13;;;;;;;1.37;1.20;;;15.20;66.90;;;;;;5030420;28;20957;-61
2023/01/06 09:53:45;;;;;;;2.20;1.20;;;15.30;66.60;;;;;;5030065;28;20458;-62
2023/01/06 09:56:16;;;;;;;1.53;1.40;;;15.30;66.50;;;;;;5030061;28;20459;-61
2023/01/06 09:58:50;;;;;;;1.20;1.10;;;15.30;66.50;;;;;;5023030;28;20450;-61
2023/01/06 10:01:22;;;;;;;1.60;1.27;;;15.30;66.80;;;;;;5019819;28;20436;-61
2023/01/06 10:03:48;;;;;;;1.00;0.90;;;15.30;66.50;;;;;;5013960;28;20479;-61
2023/01/06 10:06:27;;;;;;;1.10;1.00;;;15.50;66.10;;;;;;5019888;28;20424;-61
2023/01/06 10:08:56;;;;;;;2.70;1.00;;;15.70;66.30;;;;;;5018235;28;20220;-61
2023/01/06 10:11:50;;;;;;;0.90;0.90;;;15.70;65.50;;;;;;5029472;28;20447;-61
2023/01/06 10:14:32;;;;;;;2.13;1.20;;;15.60;65.30;;;;;;4993236;28;20455;-61
2023/01/06 10:17:09;;;;;;;4.10;1.33;;;15.70;65.00;;;;;;5021756;28;20470;-61
2023/01/06 10:20:26;;;;;;;2.60;1.73;;;15.80;64.10;;;;;;5026200;28;20447;-61
2023/01/06 10:23:20;;;;;;;1.83;1.73;;;16.00;63.80;;;;;;4963871;28;20463;-61
2023/01/06 10:25:56;;;;;;;1.90;1.80;;;16.10;63.50;;;;;;5012142;28;20444;-61
2023/01/06 10:28:33;;;;;;;1.97;1.47;;;16.20;63.40;;;;;;5039934;28;20470;-61
2023/01/06 10:31:07;;;;;;;1.50;1.30;;;16.30;63.20;;;;;;5022764;28;20443;-61
2023/01/06 10:33:37;;;;;;;1.10;1.00;;;16.20;62.10;;;;;;5025186;28;20439;-61
2023/01/06 10:36:03;;;;;;;1.73;1.63;;;16.20;62.60;;;;;;5027945;28;20442;-61
2023/01/06 10:38:47;;;;;;;1.87;1.30;;;16.30;62.50;;;;;;5026113;28;20442;-61
2023/01/06 10:41:33;;;;;;;1.90;1.67;;;16.40;61.70;;;;;;5009866;28;20478;-61
2023/01/06 10:43:58;;;;;;;2.90;1.47;;;16.50;61.20;;;;;;5024987;28;20984;-61
2023/01/06 10:46:36;;;;;;;1.53;1.43;;;16.40;60.50;;;;;;5021593;28;20471;-62
2023/01/06 10:49:04;;;;;;;1.03;0.93;;;16.60;60.30;;;;;;5024945;28;20224;-61
2023/01/06 10:51:41;;;;;;;0.90;0.90;;;16.70;59.60;;;;;;5023461;28;20533;-61
2023/01/06 10:54:16;;;;;;;2.27;1.50;;;16.80;59.50;;;;;;5027108;28;20443;-61
2023/01/06 10:56:47;;;;;;;1.00;0.80;;;16.80;59.10;;;;;;5028411;28;20498;-61
2023/01/06 10:59:13;;;;;;;1.20;1.20;;;16.80;59.10;;;;;;5027425;28;20743;-61
2023/01/06 11:01:54;;;;;;;0.70;0.70;;;16.80;58.90;;;;;;5024248;28;20436;-61
2023/01/06 11:04:20;;;;;;;0.97;0.97;;;16.80;59.20;;;;;;5015389;28;20340;-60
2023/01/06 11:07:00;;;;;;;1.00;0.80;;;16.90;59.20;;;;;;5022262;28;20436;-60
2023/01/06 11:09:34;;;;;;;1.10;1.00;;;16.90;59.10;;;;;;5027325;28;20831;-61
2023/01/06 11:12:07;;;;;;;0.83;0.70;;;17.00;59.10;;;;;;5027595;28;20493;-61
2023/01/06 11:14:34;;;;;;;1.93;1.00;;;17.10;58.90;;;;;;5027664;28;20444;-62
2023/01/06 11:17:06;;;;;;;1.43;1.00;;;17.20;58.60;;;;;;5019254;28;20526;-61
2023/01/06 11:19:40;;;;;;;1.33;1.23;;;17.20;58.20;;;;;;5029237;28;20511;-61
2023/01/06 11:22:35;;;;;;;2.80;1.70;;;17.30;58.40;;;;;;5029206;28;20522;-61
2023/01/06 11:25:03;;;;;;;3.20;1.80;;;17.30;58.30;;;;;;5024653;28;20463;-61
2023/01/06 11:27:28;;;;;;;3.20;2.90;;;17.30;58.10;;;;;;5029023;28;20484;-60
2023/01/06 11:29:54;;;;;;;4.27;3.00;;;17.30;58.10;;;;;;5027425;28;20963;-59
2023/01/06 11:32:28;;;;;;;2.37;1.90;;;17.40;58.10;;;;;;5025315;28;20220;-59
2023/01/06 11:35:01;;;;;;;1.40;1.30;;;17.40;58.30;;;;;;5024671;28;20245;-60
2023/01/06 11:37:29;;;;;;;2.00;1.40;;;17.40;58.30;;;;;;5019904;28;20447;-60
2023/01/06 11:39:58;;;;;;;1.30;1.20;;;17.40;58.30;;;;;;5031227;28;20446;-60
2023/01/06 11:42:24;;;;;;;1.80;1.47;;;17.20;58.70;;;;;;5032146;28;20934;-59
2023/01/06 11:44:50;;;;;;;1.60;1.50;;;17.00;59.80;;;;;;5030642;28;20494;-59
2023/01/06 11:47:25;;;;;;;2.07;1.97;;;16.80;61.30;;;;;;5031044;28;20478;-60
2023/01/06 11:49:56;;;;;;;2.07;1.87;;;16.70;62.60;;;;;;5023538;28;20499;-59
2023/01/06 11:52:29;;;;;;;1.93;1.80;;;16.70;62.80;;;;;;5025519;28;20486;-59
2023/01/06 11:55:20;;;;;;;2.17;2.03;;;16.80;62.60;;;;;;5032989;28;20440;-59
2023/01/06 11:58:24;;;;;;;2.10;2.00;;;16.80;62.60;;;;;;5014286;28;20788;-59
2023/01/06 12:00:58;;;;;;;3.20;2.60;;;16.80;62.90;;;;;;4958869;28;20582;-59
2023/01/06 12:03:40;;;;;;;2.60;2.40;;;16.90;62.80;;;;;;4965147;28;20482;-59
2023/01/06 12:06:26;;;;;;;2.07;1.90;;;16.90;62.80;;;;;;5008040;28;20462;-59
2023/01/06 12:08:56;;;;;;;2.53;2.00;;;16.90;62.90;;;;;;5021656;28;20595;-59
2023/01/06 12:11:34;;;;;;;2.43;2.23;;;16.90;62.70;;;;;;5022436;28;20425;-59
2023/01/06 12:14:00;;;;;;;3.43;2.13;;;16.70;62.80;;;;;;5028612;28;20440;-59
2023/01/06 12:16:39;;;;;;;2.40;2.20;;;16.70;63.40;;;;;;5026701;28;20439;-59
2023/01/06 12:19:16;;;;;;;1.80;1.70;;;16.80;63.30;;;;;;5028090;28;20673;-60
2023/01/06 12:21:41;;;;;;;1.93;1.83;;;16.90;62.80;;;;;;5029392;28;20441;-59
2023/01/06 12:24:12;;;;;;;1.73;1.63;;;16.90;62.20;;;;;;5031222;28;20428;-60
2023/01/06 12:26:40;;;;;;;2.03;1.77;;;17.00;62.20;;;;;;5028360;28;20557;-59
2023/01/06 12:29:07;;;;;;;3.00;2.20;;;17.00;62.10;;;;;;5015462;28;21154;-59
2023/01/06 12:31:44;;;;;;;3.07;2.77;;;17.10;62.10;;;;;;5030327;28;20446;-59
2023/01/06 12:34:14;;;;;;;3.80;3.50;;;17.10;62.00;;;;;;5031047;28;20435;-60
2023/01/06 12:37:03;;;;;;;3.37;3.07;;;17.10;62.30;;;;;;5018516;28;20493;-59
2023/01/06 12:39:44;;;;;;;2.13;2.03;;;17.20;62.60;;;;;;5025990;28;20963;-59
2023/01/06 12:42:21;;;;;;;2.30;2.10;;;17.20;62.60;;;;;;5013630;28;20471;-60
2023/01/06 12:44:53;;;;;;;3.30;3.00;;;17.20;62.40;;;;;;5028952;28;20472;-59
2023/01/06 12:47:40;;;;;;;2.97;2.77;;;17.20;62.30;;;;;;5028400;28;20780;-60
2023/01/06 12:50:16;;;;;;;2.80;2.60;;;17.20;62.20;;;;;;5024262;28;20479;-60
2023/01/06 12:52:58;;;;;;;2.23;1.90;;;17.20;62.10;;;;;;5025494;28;20455;-60
2023/01/06 12:55:35;;;;;;;2.47;2.37;;;17.20;62.00;;;;;;5026753;28;20450;-60
2023/01/06 12:58:13;;;;;;;3.30;3.00;;;17.20;61.50;;;;;;5025413;28;20526;-58
2023/01/06 13:01:23;;;;;;;1.40;1.30;;;17.30;61.30;;;;;;5023165;28;20462;-58
2023/01/06 13:04:38;;;;;;;1.20;1.20;;;17.20;60.60;;;;;;5007266;28;20623;-60
2023/01/06 13:07:18;;;;;;;2.20;2.00;;;17.30;59.90;;;;;;5026567;28;20472;-60
2023/01/06 13:10:02;;;;;;;2.90;2.67;;;17.30;59.60;;;;;;5028499;28;20479;-60